Time,TemperatureF,DewpointF,PressureIn,WindDirection,WindDirectionDegrees,WindSpeedMPH,WindSpeedGustMPH,Humidity,HourlyPrecipIn,Conditions,Clouds,dailyrainin,SoftwareType,DateUTC
2013-09-04 00:02:00,55.6,-0.1,29.85,SW,225,0.0,0.0,1,0.00,,,0.00,WUHU216HW,2013-09-04 07:02:00,
2013-09-04 00:07:00,55.6,-0.1,29.85,SW,225,0.0,0.0,1,0.00,,,0.00,WUHU216HW,2013-09-04 07:07:00,
2013-09-04 00:12:00,55.6,-0.1,29.85,SW,225,0.0,0.0,1,0.00,,,0.00,WUHU216HW,2013-09-04 07:12:00,
2013-09-04 00:17:00,55.4,-0.2,29.85,SW,225,0.0,0.0,1,0.00,,,0.00,WUHU216HW,2013-09-04 07:17:00,
2013-09-04 00:22:00,55.1,-0.4,29.85,SW,225,0.0,0.0,1,0.00,,,0.00,WUHU216HW,2013-09-04 07:22:00,
2013-09-04 00:27:00,54.9,-0.6,29.86,SW,225,0.2,0.4,1,0.00,,,0.00,WUHU216HW,2013-09-04 07:27:00,
2013-09-04 00:32:00,55.1,-0.4,29.86,SSW,203,0.0,0.4,1,0.00,,,0.00,WUHU216HW,2013-09-04 07:32:00,
2013-09-04 00:37:00,55.1,-0.4,29.85,SSE,158,0.4,0.4,1,0.00,,,0.00,WUHU216HW,2013-09-04 07:37:00,
2013-09-04 00:42:00,54.9,-0.6,29.86,East,90,0.0,0.9,1,0.00,,,0.00,WUHU216HW,2013-09-04 07:42:00,
2013-09-04 00:47:00,55.1,-0.4,29.86,East,90,0.0,0.9,1,0.00,,,0.00,WUHU216HW,2013-09-04 07:47:00,
2013-09-04 00:52:00,55.1,-0.4,29.86,NNW,338,0.0,0.0,1,0.00,,,0.00,WUHU216HW,2013-09-04 07:52:00,
2013-09-04 00:57:00,54.9,-0.6,29.86,NNW,338,0.0,0.0,1,0.00,,,0.00,WUHU216HW,2013-09-04 07:57:00,
2013-09-04 01:02:00,54.7,-0.7,29.86,NNW,338,0.0,0.0,1,0.00,,,0.00,WUHU216HW,2013-09-04 08:02:00,
2013-09-04 01:07:00,54.7,-0.7,29.86,NNW,338,0.0,0.0,1,0.00,,,0.00,WUHU216HW,2013-09-04 08:07:00,
2013-09-04 01:12:00,54.9,-0.6,29.86,NNW,338,0.0,0.0,1,0.00,,,0.00,WUHU216HW,2013-09-04 08:12:00,
2013-09-04 01:17:00,54.7,-0.7,29.86,NNW,338,0.0,0.0,1,0.00,,,0.00,WUHU216HW,2013-09-04 08:17:00,
2013-09-04 01:22:00,54.7,-0.7,29.85,West,270,0.0,0.0,1,0.00,,,0.00,WUHU216HW,2013-09-04 08:22:00,
2013-09-04 01:27:00,54.5,-0.9,29.85,West,270,0.0,0.0,1,0.00,,,0.00,WUHU216HW,2013-09-04 08:27:00,
2013-09-04 01:32:00,54.5,-0.9,29.85,West,270,0.0,0.0,1,0.00,,,0.00,WUHU216HW,2013-09-04 08:32:00,
2013-09-04 01:37:00,54.5,-0.9,29.84,West,270,0.0,0.0,1,0.00,,,0.00,WUHU216HW,2013-09-04 08:37:00,
2013-09-04 01:42:00,54.7,-0.7,29.84,West,270,0.0,0.0,1,0.00,,,0.00,WUHU216HW,2013-09-04 08:42:00,
2013-09-04 01:47:00,54.7,-0.7,29.84,West,270,0.0,0.0,1,0.00,,,0.00,WUHU216HW,2013-09-04 08:47:00,
2013-09-04 01:52:00,54.9,-0.6,29.84,WSW,248,0.0,0.0,1,0.00,,,0.00,WUHU216HW,2013-09-04 08:52:00,
2013-09-04 01:57:00,54.9,-0.6,29.84,WSW,248,0.0,0.0,1,0.00,,,0.00,WUHU216HW,2013-09-04 08:57:00,
2013-09-04 02:02:00,54.7,-0.7,29.84,WSW,248,0.0,0.0,1,0.00,,,0.00,WUHU216HW,2013-09-04 09:02:00,
2013-09-04 02:07:00,54.5,-0.9,29.85,WSW,248,0.0,0.0,1,0.00,,,0.00,WUHU216HW,2013-09-04 09:07:00,
2013-09-04 02:12:00,54.5,-0.9,29.85,WSW,248,0.0,0.0,1,0.00,,,0.00,WUHU216HW,2013-09-04 09:12:00,
2013-09-04 02:17:00,54.5,-0.9,29.85,WSW,248,0.0,0.0,1,0.00,,,0.00,WUHU216HW,2013-09-04 09:17:00,
2013-09-04 02:22:00,54.5,-0.9,29.85,WSW,248,0.0,0.0,1,0.00,,,0.00,WUHU216HW,2013-09-04 09:22:00,
2013-09-04 02:27:00,54.5,-0.9,29.85,WSW,248,0.0,0.0,1,0.00,,,0.00,WUHU216HW,2013-09-04 09:27:00,
2013-09-04 02:32:00,54.5,-0.9,29.85,WSW,248,0.0,0.0,1,0.00,,,0.00,WUHU216HW,2013-09-04 09:32:00,
2013-09-04 02:37:00,54.4,-1.1,29.85,NNW,338,0.0,0.0,1,0.00,,,0.00,WUHU216HW,2013-09-04 09:37:00,
2013-09-04 02:42:00,54.2,-1.2,29.85,NNW,338,0.0,0.0,1,0.00,,,0.00,WUHU216HW,2013-09-04 09:42:00,
2013-09-04 02:47:00,54.0,-1.3,29.85,NNW,338,0.0,0.0,1,0.00,,,0.00,WUHU216HW,2013-09-04 09:47:00,
2013-09-04 02:52:00,54.0,-1.3,29.85,NNW,338,0.0,0.0,1,0.00,,,0.00,WUHU216HW,2013-09-04 09:52:00,
2013-09-04 02:57:00,54.0,-1.3,29.85,NNW,338,0.0,0.0,1,0.00,,,0.00,WUHU216HW,2013-09-04 09:57:00,
2013-09-04 03:02:00,54.2,-1.2,29.85,NNW,338,0.0,0.0,1,0.00,,,0.00,WUHU216HW,2013-09-04 10:02:00,
2013-09-04 03:07:00,54.0,-1.3,29.85,NNW,338,0.0,0.0,1,0.00,,,0.00,WUHU216HW,2013-09-04 10:07:00,
2013-09-04 03:12:00,54.2,-1.2,29.85,NNW,338,0.0,0.0,1,0.00,,,0.00,WUHU216HW,2013-09-04 10:12:00,
2013-09-04 03:17:00,54.0,-1.3,29.85,NNW,338,0.0,0.0,1,0.00,,,0.00,WUHU216HW,2013-09-04 10:17:00,
2013-09-04 03:22:00,54.0,-1.3,29.84,NNW,338,0.0,0.0,1,0.00,,,0.00,WUHU216HW,2013-09-04 10:22:00,
2013-09-04 03:27:00,53.8,-1.4,29.84,NNW,338,0.0,0.0,1,0.00,,,0.00,WUHU216HW,2013-09-04 10:27:00,
2013-09-04 03:32:00,54.0,-1.3,29.84,SSW,203,0.0,0.0,1,0.00,,,0.00,WUHU216HW,2013-09-04 10:32:00,
2013-09-04 03:37:00,53.8,-1.4,29.84,SSW,203,0.0,0.0,1,0.00,,,0.00,WUHU216HW,2013-09-04 10:37:00,
2013-09-04 03:42:00,53.8,-1.4,29.84,SSW,203,0.0,0.0,1,0.00,,,0.00,WUHU216HW,2013-09-04 10:42:00,
2013-09-04 03:47:00,53.6,-1.6,29.85,SSW,203,0.0,0.0,1,0.00,,,0.00,WUHU216HW,2013-09-04 10:47:00,
2013-09-04 03:52:00,54.0,-1.3,29.84,SSW,203,0.0,0.0,1,0.00,,,0.00,WUHU216HW,2013-09-04 10:52:00,
2013-09-04 03:57:00,54.4,-1.1,29.85,South,180,0.4,0.4,1,0.00,,,0.00,WUHU216HW,2013-09-04 10:57:00,
2013-09-04 04:02:00,54.5,-0.9,29.83,North,0,1.8,1.8,1,0.00,,,0.00,WUHU216HW,2013-09-04 11:02:00,
2013-09-04 04:07:00,54.9,-0.6,29.83,NNE,23,1.6,1.8,1,0.00,,,0.00,WUHU216HW,2013-09-04 11:07:00,
2013-09-04 04:12:00,55.1,-0.4,29.82,North,0,0.7,1.8,1,0.00,,,0.00,WUHU216HW,2013-09-04 11:12:00,
2013-09-04 04:17:00,55.4,-0.2,29.83,South,180,1.8,1.8,1,0.00,,,0.00,WUHU216HW,2013-09-04 11:17:00,
2013-09-04 04:22:00,55.4,-0.2,29.83,SW,225,1.1,1.8,1,0.00,,,0.00,WUHU216HW,2013-09-04 11:22:00,
2013-09-04 04:27:00,55.4,-0.2,29.84,SSW,203,0.0,1.8,1,0.00,,,0.00,WUHU216HW,2013-09-04 11:27:00,
2013-09-04 04:32:00,55.4,-0.2,29.84,SSW,203,0.0,0.7,1,0.00,,,0.00,WUHU216HW,2013-09-04 11:32:00,
2013-09-04 04:37:00,55.4,-0.2,29.85,SSW,203,0.4,0.4,1,0.00,,,0.00,WUHU216HW,2013-09-04 11:37:00,
2013-09-04 04:42:00,55.4,-0.2,29.84,SE,135,0.7,0.7,1,0.00,,,0.00,WUHU216HW,2013-09-04 11:42:00,
2013-09-04 04:47:00,55.8,0.1,29.83,ENE,68,1.8,1.8,1,0.00,,,0.00,WUHU216HW,2013-09-04 11:47:00,
2013-09-04 04:52:00,55.8,0.1,29.83,ENE,68,1.8,1.8,1,0.00,,,0.00,WUHU216HW,2013-09-04 11:52:00,
2013-09-04 04:57:00,56.3,0.5,29.83,NNW,338,0.7,1.8,1,0.00,,,0.00,WUHU216HW,2013-09-04 11:57:00,
2013-09-04 05:02:00,56.5,0.5,29.83,East,90,0.7,0.7,1,0.00,,,0.00,WUHU216HW,2013-09-04 12:02:00,
2013-09-04 05:07:00,56.5,0.5,29.83,East,90,1.1,2.5,1,0.00,,,0.00,WUHU216HW,2013-09-04 12:07:00,
2013-09-04 05:12:00,56.7,0.7,29.83,NNE,23,1.8,2.5,1,0.00,,,0.00,WUHU216HW,2013-09-04 12:12:00,
2013-09-04 05:17:00,56.7,0.7,29.83,West,270,0.9,1.8,1,0.00,,,0.00,WUHU216HW,2013-09-04 12:17:00,
2013-09-04 05:22:00,56.7,0.7,29.83,SSE,158,0.7,1.8,1,0.00,,,0.00,WUHU216HW,2013-09-04 12:22:00,
2013-09-04 05:27:00,56.7,0.7,29.83,SSE,158,0.7,0.9,1,0.00,,,0.00,WUHU216HW,2013-09-04 12:27:00,
2013-09-04 05:32:00,56.7,0.7,29.83,SSE,158,0.7,0.7,1,0.00,,,0.00,WUHU216HW,2013-09-04 12:32:00,
2013-09-04 05:37:00,56.7,0.7,29.83,SSE,158,0.0,0.7,1,0.00,,,0.00,WUHU216HW,2013-09-04 12:37:00,
2013-09-04 05:42:00,56.5,0.5,29.84,SSE,158,0.0,0.0,1,0.00,,,0.00,WUHU216HW,2013-09-04 12:42:00,
2013-09-04 05:47:00,56.5,0.5,29.83,SSE,158,0.0,0.0,1,0.00,,,0.00,WUHU216HW,2013-09-04 12:47:00,
2013-09-04 05:52:00,56.2,0.4,29.83,SSE,158,0.0,0.0,1,0.00,,,0.00,WUHU216HW,2013-09-04 12:52:00,
2013-09-04 05:57:00,56.2,0.4,29.83,SSW,203,0.0,0.0,1,0.00,,,0.00,WUHU216HW,2013-09-04 12:57:00,
2013-09-04 06:02:00,56.5,0.5,29.83,SSW,203,0.0,0.0,1,0.00,,,0.00,WUHU216HW,2013-09-04 13:02:00,
2013-09-04 06:07:00,56.7,0.7,29.83,NNW,338,0.0,0.0,1,0.00,,,0.00,WUHU216HW,2013-09-04 13:07:00,
2013-09-04 06:12:00,56.7,0.7,29.83,NNW,338,0.0,0.0,1,0.00,,,0.00,WUHU216HW,2013-09-04 13:12:00,
2013-09-04 06:17:00,56.9,0.8,29.83,NNW,338,0.0,0.0,1,0.00,,,0.00,WUHU216HW,2013-09-04 13:17:00,
2013-09-04 06:22:00,56.9,0.8,29.83,NNW,338,0.0,0.0,1,0.00,,,0.00,WUHU216HW,2013-09-04 13:22:00,
2013-09-04 06:27:00,56.9,0.8,29.83,North,0,0.0,0.0,1,0.00,,,0.00,WUHU216HW,2013-09-04 13:27:00,
2013-09-04 06:32:00,57.1,1.0,29.83,North,0,0.0,0.0,1,0.00,,,0.00,WUHU216HW,2013-09-04 13:32:00,
2013-09-04 06:37:00,57.2,1.1,29.83,North,0,0.0,0.0,1,0.00,,,0.00,WUHU216HW,2013-09-04 13:37:00,
2013-09-04 06:42:00,57.2,1.1,29.83,North,0,0.0,0.0,1,0.00,,,0.00,WUHU216HW,2013-09-04 13:42:00,
2013-09-04 06:47:00,57.4,1.3,29.83,SSW,203,0.0,0.0,1,0.00,,,0.00,WUHU216HW,2013-09-04 13:47:00,
2013-09-04 06:52:00,57.4,1.3,29.83,SSW,203,0.0,0.0,1,0.00,,,0.00,WUHU216HW,2013-09-04 13:52:00,
2013-09-04 06:57:00,57.6,1.4,29.83,SSW,203,0.0,0.0,1,0.00,,,0.00,WUHU216HW,2013-09-04 13:57:00,
2013-09-04 07:02:00,57.6,1.4,29.83,SSE,158,0.0,0.0,1,0.00,,,0.00,WUHU216HW,2013-09-04 14:02:00,
2013-09-04 07:07:00,58.0,1.6,29.83,SSE,158,0.0,0.0,1,0.00,,,0.00,WUHU216HW,2013-09-04 14:07:00,
2013-09-04 07:12:00,58.0,1.6,29.83,ESE,113,0.0,0.0,1,0.00,,,0.00,WUHU216HW,2013-09-04 14:12:00,
2013-09-04 07:17:00,58.1,1.8,29.84,SSW,203,0.0,0.0,1,0.00,,,0.00,WUHU216HW,2013-09-04 14:17:00,
2013-09-04 07:22:00,58.3,2.0,29.84,SSW,203,0.0,0.0,1,0.00,,,0.00,WUHU216HW,2013-09-04 14:22:00,
2013-09-04 07:27:00,58.7,2.3,29.84,South,180,0.0,0.0,1,0.00,,,0.00,WUHU216HW,2013-09-04 14:27:00,
2013-09-04 07:32:00,58.9,2.3,29.84,NNE,23,0.0,0.0,1,0.00,,,0.00,WUHU216HW,2013-09-04 14:32:00,
2013-09-04 07:37:00,59.2,2.7,29.84,SSE,158,0.0,0.0,1,0.00,,,0.00,WUHU216HW,2013-09-04 14:37:00,
2013-09-04 07:42:00,59.4,2.8,29.85,SW,225,0.0,0.0,1,0.00,,,0.00,WUHU216HW,2013-09-04 14:42:00,
2013-09-04 07:47:00,59.4,2.8,29.85,SW,225,0.0,0.0,1,0.00,,,0.00,WUHU216HW,2013-09-04 14:47:00,
2013-09-04 07:52:00,59.8,3.1,29.84,SSW,203,0.0,0.0,1,0.00,,,0.00,WUHU216HW,2013-09-04 14:52:00,
2013-09-04 07:57:00,60.1,3.4,29.85,SSW,203,0.0,0.0,1,0.00,,,0.00,WUHU216HW,2013-09-04 14:57:00,
2013-09-04 08:02:00,60.5,3.7,29.85,SSW,203,0.0,0.0,1,0.00,,,0.00,WUHU216HW,2013-09-04 15:02:00,
2013-09-04 08:07:00,60.5,3.7,29.85,SSW,203,0.0,0.0,1,0.00,,,0.00,WUHU216HW,2013-09-04 15:07:00,
2013-09-04 08:12:00,60.7,3.8,29.85,SW,225,0.0,0.0,1,0.00,,,0.00,WUHU216HW,2013-09-04 15:12:00,
2013-09-04 08:17:00,60.8,4.0,29.85,SSE,158,0.0,0.0,1,0.00,,,0.00,WUHU216HW,2013-09-04 15:17:00,
2013-09-04 08:22:00,60.8,4.0,29.85,SSE,158,0.0,0.0,1,0.00,,,0.00,WUHU216HW,2013-09-04 15:22:00,
2013-09-04 08:27:00,61.2,4.2,29.85,SSE,158,0.0,0.0,1,0.00,,,0.00,WUHU216HW,2013-09-04 15:27:00,
2013-09-04 08:32:00,61.6,4.5,29.86,SSW,203,0.0,0.0,1,0.00,,,0.00,WUHU216HW,2013-09-04 15:32:00,
2013-09-04 08:37:00,61.6,4.5,29.86,SE,135,0.0,0.0,1,0.00,,,0.00,WUHU216HW,2013-09-04 15:37:00,
2013-09-04 08:42:00,61.6,4.5,29.86,SE,135,0.0,0.0,1,0.00,,,0.00,WUHU216HW,2013-09-04 15:42:00,
2013-09-04 08:47:00,61.7,4.7,29.86,SE,135,0.0,0.0,1,0.00,,,0.00,WUHU216HW,2013-09-04 15:47:00,
2013-09-04 08:52:00,62.1,5.0,29.86,SE,135,0.0,0.0,1,0.00,,,0.00,WUHU216HW,2013-09-04 15:52:00,
2013-09-04 08:57:00,62.6,5.4,29.86,SSE,158,0.0,0.0,1,0.00,,,0.00,WUHU216HW,2013-09-04 15:57:00,
2013-09-04 09:02:00,62.6,5.4,29.86,SSW,203,0.0,0.0,1,0.00,,,0.00,WUHU216HW,2013-09-04 16:02:00,
2013-09-04 09:07:00,62.8,5.5,29.86,SSW,203,0.0,0.0,1,0.00,,,0.00,WUHU216HW,2013-09-04 16:07:00,
2013-09-04 09:12:00,62.8,5.5,29.86,SSW,203,0.0,0.0,1,0.00,,,0.00,WUHU216HW,2013-09-04 16:12:00,
2013-09-04 09:17:00,63.2,5.8,29.86,SSW,203,0.0,0.0,1,0.00,,,0.00,WUHU216HW,2013-09-04 16:17:00,
2013-09-04 09:22:00,63.5,6.0,29.86,SW,225,0.0,0.0,1,0.00,,,0.00,WUHU216HW,2013-09-04 16:22:00,
2013-09-04 09:27:00,64.1,6.4,29.86,SSW,203,0.0,0.0,1,0.00,,,0.00,WUHU216HW,2013-09-04 16:27:00,
2013-09-04 09:32:00,64.6,6.9,29.86,East,90,0.0,0.0,1,0.00,,,0.00,WUHU216HW,2013-09-04 16:32:00,
2013-09-04 09:37:00,65.2,7.2,29.86,SW,225,1.3,1.3,1,0.00,,,0.00,WUHU216HW,2013-09-04 16:37:00,
2013-09-04 09:42:00,65.5,7.6,29.86,WSW,248,0.0,1.3,1,0.00,,,0.00,WUHU216HW,2013-09-04 16:42:00,
2013-09-04 09:47:00,65.9,7.8,29.86,SSW,203,1.1,1.3,1,0.00,,,0.00,WUHU216HW,2013-09-04 16:47:00,
2013-09-04 09:52:00,65.9,7.8,29.86,WSW,248,1.1,1.1,1,0.00,,,0.00,WUHU216HW,2013-09-04 16:52:00,
2013-09-04 09:57:00,66.2,8.1,29.86,SW,225,1.1,3.4,1,0.00,,,0.00,WUHU216HW,2013-09-04 16:57:00,
2013-09-04 10:02:00,66.8,8.6,29.86,SW,225,2.0,3.4,1,0.00,,,0.00,WUHU216HW,2013-09-04 17:02:00,
2013-09-04 10:07:00,67.0,8.6,29.86,NW,315,0.4,2.0,1,0.00,,,0.00,WUHU216HW,2013-09-04 17:07:00,
2013-09-04 10:12:00,67.0,8.6,29.86,WSW,248,1.1,1.1,1,0.00,,,0.00,WUHU216HW,2013-09-04 17:12:00,
2013-09-04 10:17:00,67.1,8.8,29.86,SSW,203,0.7,1.1,1,0.00,,,0.00,WUHU216HW,2013-09-04 17:17:00,
2013-09-04 10:22:00,67.5,9.1,29.86,SSW,203,2.5,2.5,1,0.00,,,0.00,WUHU216HW,2013-09-04 17:22:00,
2013-09-04 10:27:00,67.9,9.4,29.86,SW,225,1.1,2.5,1,0.00,,,0.00,WUHU216HW,2013-09-04 17:27:00,
2013-09-04 10:32:00,68.4,9.8,29.86,WSW,248,1.8,2.5,1,0.00,,,0.00,WUHU216HW,2013-09-04 17:32:00,
2013-09-04 10:37:00,68.8,10.1,29.86,WSW,248,0.2,1.8,1,0.00,,,0.00,WUHU216HW,2013-09-04 17:37:00,
2013-09-04 10:42:00,69.5,10.5,29.86,WSW,248,2.9,2.9,1,0.00,,,0.00,WUHU216HW,2013-09-04 17:42:00,
2013-09-04 10:47:00,69.1,10.3,29.86,ESE,113,2.0,2.9,1,0.00,,,0.00,WUHU216HW,2013-09-04 17:47:00,
2013-09-04 10:52:00,68.9,10.2,29.85,North,0,0.0,2.9,1,0.00,,,0.00,WUHU216HW,2013-09-04 17:52:00,
2013-09-04 10:57:00,69.1,10.3,29.85,North,0,1.3,2.0,1,0.00,,,0.00,WUHU216HW,2013-09-04 17:57:00,
2013-09-04 11:02:00,68.9,10.2,29.85,North,0,2.5,2.5,1,0.00,,,0.00,WUHU216HW,2013-09-04 18:02:00,
2013-09-04 11:07:00,68.8,10.1,29.85,NNE,23,1.8,4.0,1,0.00,,,0.00,WUHU216HW,2013-09-04 18:07:00,
2013-09-04 11:12:00,69.5,10.5,29.85,North,0,1.1,4.0,1,0.00,,,0.00,WUHU216HW,2013-09-04 18:12:00,
2013-09-04 11:17:00,70.6,11.3,29.85,North,0,1.1,1.8,1,0.00,,,0.00,WUHU216HW,2013-09-04 18:17:00,
2013-09-04 11:22:00,70.2,11.1,29.85,North,0,0.7,3.6,1,0.00,,,0.00,WUHU216HW,2013-09-04 18:22:00,
2013-09-04 11:27:00,69.8,10.8,29.85,NW,315,0.9,3.6,1,0.00,,,0.00,WUHU216HW,2013-09-04 18:27:00,
2013-09-04 11:32:00,69.8,10.8,29.85,NNE,23,1.1,1.1,1,0.00,,,0.00,WUHU216HW,2013-09-04 18:32:00,
2013-09-04 11:37:00,69.7,10.7,29.85,NW,315,1.3,3.4,1,0.00,,,0.00,WUHU216HW,2013-09-04 18:37:00,
2013-09-04 11:42:00,69.7,10.7,29.85,NNW,338,3.8,3.8,1,0.00,,,0.00,WUHU216HW,2013-09-04 18:42:00,
2013-09-04 11:47:00,70.2,11.1,29.85,NNE,23,2.0,3.8,1,0.00,,,0.00,WUHU216HW,2013-09-04 18:47:00,
2013-09-04 11:52:00,70.6,11.3,29.84,North,0,1.1,3.8,1,0.00,,,0.00,WUHU216HW,2013-09-04 18:52:00,
2013-09-04 11:57:00,71.3,12.0,29.84,NNW,338,1.1,2.0,1,0.00,,,0.00,WUHU216HW,2013-09-04 18:57:00,
2013-09-04 12:02:00,70.9,11.7,29.84,NNW,338,2.7,2.7,1,0.00,,,0.00,WUHU216HW,2013-09-04 19:02:00,
2013-09-04 12:07:00,70.9,11.7,29.84,NW,315,3.8,3.8,1,0.00,,,0.00,WUHU216HW,2013-09-04 19:07:00,
2013-09-04 12:12:00,70.9,11.7,29.84,WNW,293,1.3,3.8,1,0.00,,,0.00,WUHU216HW,2013-09-04 19:12:00,
2013-09-04 12:17:00,70.7,11.5,29.84,West,270,3.6,3.8,1,0.00,,,0.00,WUHU216HW,2013-09-04 19:17:00,
2013-09-04 12:22:00,70.9,11.7,29.84,North,0,2.9,3.6,1,0.00,,,0.00,WUHU216HW,2013-09-04 19:22:00,
2013-09-04 12:27:00,71.5,12.1,29.84,North,0,2.5,2.9,1,0.00,,,0.00,WUHU216HW,2013-09-04 19:27:00,
2013-09-04 12:32:00,70.7,11.5,29.84,WNW,293,0.9,2.9,1,0.00,,,0.00,WUHU216HW,2013-09-04 19:32:00,
2013-09-04 12:37:00,70.9,11.7,29.84,NNW,338,1.8,2.5,1,0.00,,,0.00,WUHU216HW,2013-09-04 19:37:00,
2013-09-04 12:42:00,71.5,12.1,29.84,NNW,338,1.8,2.7,1,0.00,,,0.00,WUHU216HW,2013-09-04 19:42:00,
2013-09-04 12:47:00,70.9,11.7,29.84,North,0,6.3,6.3,1,0.00,,,0.00,WUHU216HW,2013-09-04 19:47:00,
2013-09-04 12:52:00,70.9,11.7,29.85,WNW,293,2.5,6.3,1,0.00,,,0.00,WUHU216HW,2013-09-04 19:52:00,
2013-09-04 12:57:00,71.3,12.0,29.84,NW,315,3.6,6.3,1,0.00,,,0.00,WUHU216HW,2013-09-04 19:57:00,
2013-09-04 13:02:00,71.1,11.8,29.85,NNW,338,2.5,3.6,1,0.00,,,0.00,WUHU216HW,2013-09-04 20:02:00,
2013-09-04 13:07:00,70.7,11.5,29.84,NW,315,4.5,8.1,1,0.00,,,0.00,WUHU216HW,2013-09-04 20:07:00,
2013-09-04 13:12:00,70.9,11.7,29.84,NNE,23,2.7,8.1,1,0.00,,,0.00,WUHU216HW,2013-09-04 20:12:00,
2013-09-04 13:17:00,70.9,11.7,29.85,WSW,248,3.1,7.4,1,0.00,,,0.00,WUHU216HW,2013-09-04 20:17:00,
2013-09-04 13:22:00,71.3,12.0,29.85,NW,315,4.5,7.4,1,0.00,,,0.00,WUHU216HW,2013-09-04 20:22:00,
2013-09-04 13:27:00,70.7,11.5,29.85,North,0,1.3,4.9,1,0.00,,,0.00,WUHU216HW,2013-09-04 20:27:00,
2013-09-04 13:32:00,70.9,11.7,29.85,WNW,293,1.6,4.5,1,0.00,,,0.00,WUHU216HW,2013-09-04 20:32:00,
2013-09-04 13:37:00,70.7,11.5,29.85,NE,45,0.7,1.6,1,0.00,,,0.00,WUHU216HW,2013-09-04 20:37:00,
2013-09-04 13:42:00,70.2,11.1,29.85,North,0,1.3,1.6,1,0.00,,,0.00,WUHU216HW,2013-09-04 20:42:00,
2013-09-04 13:47:00,70.2,11.1,29.85,NNE,23,2.5,2.5,1,0.00,,,0.00,WUHU216HW,2013-09-04 20:47:00,
2013-09-04 13:52:00,70.0,11.0,29.85,NNW,338,1.6,2.5,1,0.00,,,0.00,WUHU216HW,2013-09-04 20:52:00,
2013-09-04 13:57:00,69.8,10.8,29.86,NW,315,5.4,5.4,1,0.00,,,0.00,WUHU216HW,2013-09-04 20:57:00,
2013-09-04 14:02:00,69.3,10.5,29.86,NNW,338,4.5,5.4,1,0.00,,,0.00,WUHU216HW,2013-09-04 21:02:00,
2013-09-04 14:07:00,69.3,10.5,29.86,North,0,2.7,4.5,1,0.00,,,0.00,WUHU216HW,2013-09-04 21:07:00,
2013-09-04 14:12:00,68.8,10.1,29.86,NNW,338,5.4,5.4,1,0.00,,,0.00,WUHU216HW,2013-09-04 21:12:00,
2013-09-04 14:17:00,68.8,10.1,29.86,NNW,338,3.4,5.4,1,0.00,,,0.00,WUHU216HW,2013-09-04 21:17:00,
2013-09-04 14:22:00,68.4,9.8,29.87,North,0,2.7,3.4,1,0.00,,,0.00,WUHU216HW,2013-09-04 21:22:00,
2013-09-04 14:27:00,68.4,9.8,29.87,NW,315,2.5,2.7,1,0.00,,,0.00,WUHU216HW,2013-09-04 21:27:00,
2013-09-04 14:32:00,68.4,9.8,29.87,NW,315,2.5,2.5,1,0.00,,,0.00,WUHU216HW,2013-09-04 21:32:00,
2013-09-04 14:37:00,68.6,9.9,29.87,NW,315,5.1,5.1,1,0.00,,,0.00,WUHU216HW,2013-09-04 21:37:00,
2013-09-04 14:42:00,68.4,9.8,29.87,NNE,23,0.9,5.1,1,0.00,,,0.00,WUHU216HW,2013-09-04 21:42:00,
2013-09-04 14:47:00,68.0,9.5,29.87,NW,315,4.3,4.3,1,0.00,,,0.00,WUHU216HW,2013-09-04 21:47:00,
2013-09-04 14:52:00,68.0,9.5,29.86,North,0,2.5,4.3,1,0.00,,,0.00,WUHU216HW,2013-09-04 21:52:00,
2013-09-04 14:58:00,68.0,9.5,29.87,North,0,0.7,2.5,1,0.00,,,0.00,WUHU216HW,2013-09-04 21:58:00,
2013-09-04 15:03:00,68.2,9.6,29.88,North,0,4.3,4.3,1,0.00,,,0.00,WUHU216HW,2013-09-04 22:03:00,
2013-09-04 15:08:00,68.0,9.5,29.87,WSW,248,0.0,4.3,1,0.00,,,0.00,WUHU216HW,2013-09-04 22:08:00,
2013-09-04 15:13:00,68.0,9.5,29.88,NW,315,1.1,1.1,1,0.00,,,0.00,WUHU216HW,2013-09-04 22:13:00,
2013-09-04 15:18:00,68.0,9.5,29.87,West,270,0.0,1.1,1,0.00,,,0.00,WUHU216HW,2013-09-04 22:18:00,
2013-09-04 15:24:00,68.4,9.8,29.87,NNW,338,4.7,4.7,1,0.00,,,0.00,WUHU216HW,2013-09-04 22:24:00,
2013-09-04 15:29:00,68.8,10.1,29.87,North,0,1.8,4.7,1,0.00,,,0.00,WUHU216HW,2013-09-04 22:29:00,
2013-09-04 15:34:00,68.6,9.9,29.87,NNW,338,2.9,2.9,1,0.00,,,0.00,WUHU216HW,2013-09-04 22:34:00,
2013-09-04 15:39:00,68.4,9.8,29.87,North,0,3.1,3.1,1,0.00,,,0.00,WUHU216HW,2013-09-04 22:39:00,
2013-09-04 15:44:00,68.2,9.6,29.87,North,0,0.9,3.1,1,0.00,,,0.00,WUHU216HW,2013-09-04 22:44:00,
2013-09-04 15:49:00,68.2,9.6,29.87,North,0,1.1,1.1,1,0.00,,,0.00,WUHU216HW,2013-09-04 22:49:00,
2013-09-04 15:54:00,68.6,9.9,29.87,North,0,0.2,1.1,1,0.00,,,0.00,WUHU216HW,2013-09-04 22:54:00,
2013-09-04 15:59:00,68.8,10.1,29.87,North,0,2.5,2.5,1,0.00,,,0.00,WUHU216HW,2013-09-04 22:59:00,
2013-09-04 16:05:00,68.8,10.1,29.87,North,0,2.5,2.5,1,0.00,,,0.00,WUHU216HW,2013-09-04 23:05:00,
2013-09-04 16:10:00,68.4,9.8,29.86,NW,315,1.8,2.5,1,0.00,,,0.00,WUHU216HW,2013-09-04 23:10:00,
2013-09-04 16:16:00,68.8,10.1,29.86,NNW,338,2.0,2.0,1,0.00,,,0.00,WUHU216HW,2013-09-04 23:16:00,
2013-09-04 16:24:00,68.6,9.9,29.86,NNW,338,0.7,2.0,1,0.00,,,0.00,WUHU216HW,2013-09-04 23:24:00,
2013-09-04 16:31:00,68.8,10.1,29.86,North,0,4.0,4.0,1,0.00,,,0.00,WUHU216HW,2013-09-04 23:31:00,
2013-09-04 16:38:00,68.8,10.1,29.86,NW,315,0.9,4.0,1,0.00,,,0.00,WUHU216HW,2013-09-04 23:38:00,
2013-09-04 16:45:00,68.8,10.1,29.86,NNE,23,2.7,2.7,1,0.00,,,0.00,WUHU216HW,2013-09-04 23:45:00,
2013-09-04 16:53:00,69.1,10.3,29.86,West,270,3.6,3.6,1,0.00,,,0.00,WUHU216HW,2013-09-04 23:53:00,
2013-09-04 17:00:00,69.5,10.5,29.86,NNW,338,3.1,3.6,1,0.00,,,0.00,WUHU216HW,2013-09-05 00:00:00,
2013-09-04 17:05:00,70.0,11.0,29.86,NNW,338,1.1,3.1,1,0.00,,,0.00,WUHU216HW,2013-09-05 00:05:00,
2013-09-04 17:11:00,69.5,10.5,29.86,NNW,338,4.9,4.9,1,0.00,,,0.00,WUHU216HW,2013-09-05 00:11:00,
2013-09-04 17:17:00,69.5,10.5,29.86,NNW,338,4.9,4.9,1,0.00,,,0.00,WUHU216HW,2013-09-05 00:17:00,
2013-09-04 17:22:00,69.1,10.3,29.85,North,0,3.8,4.9,1,0.00,,,0.00,WUHU216HW,2013-09-05 00:22:00,
2013-09-04 17:27:00,70.0,11.0,29.86,NNE,23,0.4,3.8,1,0.00,,,0.00,WUHU216HW,2013-09-05 00:27:00,
2013-09-04 17:33:00,70.0,11.0,29.86,NW,315,2.7,2.7,1,0.00,,,0.00,WUHU216HW,2013-09-05 00:33:00,
2013-09-04 17:38:00,69.7,10.7,29.86,NW,315,1.1,2.7,1,0.00,,,0.00,WUHU216HW,2013-09-05 00:38:00,
2013-09-04 17:44:00,69.3,10.5,29.86,NW,315,1.1,1.1,1,0.00,,,0.00,WUHU216HW,2013-09-05 00:44:00,
2013-09-04 17:52:00,69.3,10.5,29.86,SE,135,0.0,1.1,1,0.00,,,0.00,WUHU216HW,2013-09-05 00:52:00,
2013-09-04 17:59:00,69.3,10.5,29.86,North,0,0.4,0.4,1,0.00,,,0.00,WUHU216HW,2013-09-05 00:59:00,
2013-09-04 18:04:00,69.1,10.3,29.86,NNW,338,0.4,0.4,1,0.00,,,0.00,WUHU216HW,2013-09-05 01:04:00,
2013-09-04 18:09:00,69.3,10.5,29.86,NW,315,0.2,0.4,1,0.00,,,0.00,WUHU216HW,2013-09-05 01:09:00,
2013-09-04 18:15:00,69.5,10.5,29.86,North,0,1.3,1.3,1,0.00,,,0.00,WUHU216HW,2013-09-05 01:15:00,
2013-09-04 18:20:00,68.9,10.2,29.86,NNW,338,0.0,1.3,1,0.00,,,0.00,WUHU216HW,2013-09-05 01:20:00,
2013-09-04 18:26:00,68.6,9.9,29.86,North,0,0.7,0.7,1,0.00,,,0.00,WUHU216HW,2013-09-05 01:26:00,
2013-09-04 18:32:00,68.4,9.8,29.86,West,270,0.0,0.7,1,0.00,,,0.00,WUHU216HW,2013-09-05 01:32:00,
2013-09-04 18:39:00,68.2,9.6,29.86,South,180,0.2,0.2,1,0.00,,,0.00,WUHU216HW,2013-09-05 01:39:00,
2013-09-04 18:45:00,67.5,9.1,29.86,NE,45,0.0,0.2,1,0.00,,,0.00,WUHU216HW,2013-09-05 01:45:00,
2013-09-04 18:53:00,66.8,8.6,29.86,NE,45,0.0,0.0,1,0.00,,,0.00,WUHU216HW,2013-09-05 01:53:00,
2013-09-04 19:00:00,66.6,8.4,29.86,NE,45,1.1,1.1,1,0.00,,,0.00,WUHU216HW,2013-09-05 02:00:00,
2013-09-04 19:05:00,66.2,8.1,29.86,NNE,23,0.0,1.1,1,0.00,,,0.00,WUHU216HW,2013-09-05 02:05:00,
2013-09-04 19:10:00,65.9,7.8,29.86,NNE,23,0.4,0.4,1,0.00,,,0.00,WUHU216HW,2013-09-05 02:10:00,
2013-09-04 19:16:00,65.7,7.7,29.86,NNE,23,0.0,0.4,1,0.00,,,0.00,WUHU216HW,2013-09-05 02:16:00,
2013-09-04 19:21:00,65.3,7.4,29.86,NNE,23,0.9,0.9,1,0.00,,,0.00,WUHU216HW,2013-09-05 02:21:00,
2013-09-04 19:27:00,64.8,6.9,29.86,NE,45,0.0,0.9,1,0.00,,,0.00,WUHU216HW,2013-09-05 02:27:00,
2013-09-04 19:34:00,64.6,6.9,29.87,NE,45,0.0,0.0,1,0.00,,,0.00,WUHU216HW,2013-09-05 02:34:00,
2013-09-04 19:40:00,64.6,6.9,29.86,NE,45,0.0,0.0,1,0.00,,,0.00,WUHU216HW,2013-09-05 02:40:00,
2013-09-04 19:48:00,64.4,6.7,29.86,NE,45,0.0,0.0,1,0.01,,,0.00,WUHU216HW,2013-09-05 02:48:00,
2013-09-04 19:54:00,64.3,6.6,29.86,NE,45,0.0,0.0,1,0.01,,,0.01,WUHU216HW,2013-09-05 02:54:00,
2013-09-04 20:00:00,64.1,6.4,29.86,NE,45,0.0,0.0,1,0.01,,,0.01,WUHU216HW,2013-09-05 03:00:00,
2013-09-04 20:07:00,63.7,6.1,29.86,NNE,23,0.0,0.0,1,0.01,,,0.01,WUHU216HW,2013-09-05 03:07:00,
2013-09-04 20:13:00,63.4,6.0,29.86,NNE,23,0.7,0.7,1,0.01,,,0.01,WUHU216HW,2013-09-05 03:13:00,
2013-09-04 20:18:00,63.0,5.7,29.86,NNE,23,0.0,0.7,1,0.01,,,0.01,WUHU216HW,2013-09-05 03:18:00,
2013-09-04 20:23:00,62.8,5.5,29.86,ENE,68,0.0,0.0,1,0.01,,,0.01,WUHU216HW,2013-09-05 03:23:00,
2013-09-04 20:29:00,62.8,5.5,29.86,ENE,68,0.0,0.0,1,0.01,,,0.01,WUHU216HW,2013-09-05 03:29:00,
2013-09-04 20:34:00,62.6,5.4,29.86,ENE,68,0.0,0.0,1,0.01,,,0.01,WUHU216HW,2013-09-05 03:34:00,
2013-09-04 20:39:00,62.1,5.0,29.86,ENE,68,0.4,0.4,1,0.01,,,0.01,WUHU216HW,2013-09-05 03:39:00,
2013-09-04 20:47:00,61.7,4.7,29.86,NNW,338,0.7,0.7,1,0.00,,,0.01,WUHU216HW,2013-09-05 03:47:00,
2013-09-04 20:52:00,62.1,5.0,29.85,North,0,0.4,0.7,1,0.00,,,0.01,WUHU216HW,2013-09-05 03:52:00,
2013-09-04 20:58:00,62.1,5.0,29.86,East,90,0.0,0.4,1,0.00,,,0.01,WUHU216HW,2013-09-05 03:58:00,
2013-09-04 21:01:00,62.1,5.0,29.86,East,90,0.0,0.4,1,0.00,,,0.01,WUHU216HW,2013-09-05 04:01:00,
2013-09-04 21:04:00,61.7,4.7,29.86,East,90,0.0,0.0,1,0.00,,,0.01,WUHU216HW,2013-09-05 04:04:00,
2013-09-04 21:05:00,61.7,4.7,29.86,East,90,0.0,0.0,1,0.00,,,0.01,WUHU216HW,2013-09-05 04:05:00,
2013-09-04 21:06:00,61.7,4.7,29.86,East,90,0.0,0.0,1,0.00,,,0.01,WUHU216HW,2013-09-05 04:06:00,
2013-09-04 21:07:00,61.6,4.5,29.86,ESE,113,0.4,0.4,1,0.00,,,0.01,WUHU216HW,2013-09-05 04:07:00,
2013-09-04 21:14:00,61.4,4.4,29.86,ESE,113,0.4,0.4,1,0.00,,,0.01,WUHU216HW,2013-09-05 04:14:00,
2013-09-04 21:22:00,61.2,4.2,29.86,SSW,203,0.0,0.4,1,0.00,,,0.01,WUHU216HW,2013-09-05 04:22:00,
2013-09-04 21:28:00,61.2,4.2,29.87,SSW,203,0.0,0.0,1,0.00,,,0.01,WUHU216HW,2013-09-05 04:28:00,
2013-09-04 21:35:00,61.0,4.2,29.86,ENE,68,0.9,0.9,1,0.00,,,0.01,WUHU216HW,2013-09-05 04:35:00,
2013-09-04 21:42:00,60.7,3.8,29.87,SW,225,0.2,0.9,1,0.00,,,0.01,WUHU216HW,2013-09-05 04:42:00,
2013-09-04 21:48:00,60.5,3.7,29.87,SSW,203,0.0,0.2,1,0.00,,,0.01,WUHU216HW,2013-09-05 04:48:00,
2013-09-04 21:53:00,60.1,3.4,29.88,SSE,158,0.4,0.4,1,0.00,,,0.01,WUHU216HW,2013-09-05 04:53:00,
2013-09-04 21:58:00,59.9,3.2,29.88,East,90,0.2,0.4,1,0.00,,,0.01,WUHU216HW,2013-09-05 04:58:00,
2013-09-04 22:05:00,60.1,3.4,29.88,South,180,0.0,0.2,1,0.00,,,0.01,WUHU216HW,2013-09-05 05:05:00,
2013-09-04 22:11:00,60.1,3.4,29.88,South,180,0.0,0.0,1,0.00,,,0.01,WUHU216HW,2013-09-05 05:11:00,
2013-09-04 22:16:00,59.8,3.1,29.88,NNE,23,0.9,0.9,1,0.00,,,0.01,WUHU216HW,2013-09-05 05:16:00,
2013-09-04 22:21:00,59.6,3.0,29.87,SW,225,0.0,0.9,1,0.00,,,0.01,WUHU216HW,2013-09-05 05:21:00,
2013-09-04 22:27:00,59.4,2.8,29.87,West,270,0.0,0.0,1,0.00,,,0.01,WUHU216HW,2013-09-05 05:27:00,
2013-09-04 22:32:00,59.2,2.7,29.87,WNW,293,0.0,0.0,1,0.00,,,0.01,WUHU216HW,2013-09-05 05:32:00,
2013-09-04 22:38:00,58.7,2.3,29.87,North,0,0.0,0.0,1,0.00,,,0.01,WUHU216HW,2013-09-05 05:38:00,
2013-09-04 22:44:00,58.7,2.3,29.87,North,0,0.0,0.0,1,0.00,,,0.01,WUHU216HW,2013-09-05 05:44:00,
2013-09-04 22:49:00,59.2,2.7,29.88,SE,135,0.4,0.4,1,0.00,,,0.01,WUHU216HW,2013-09-05 05:49:00,
2013-09-04 22:55:00,59.0,2.5,29.88,South,180,0.0,0.4,1,0.00,,,0.01,WUHU216HW,2013-09-05 05:55:00,
2013-09-04 23:00:00,59.0,2.5,29.87,South,180,0.0,0.0,1,0.00,,,0.01,WUHU216HW,2013-09-05 06:00:00,
2013-09-04 23:05:00,59.0,2.5,29.87,NNE,23,0.4,0.7,1,0.00,,,0.01,WUHU216HW,2013-09-05 06:05:00,
2013-09-04 23:10:00,58.7,2.3,29.87,NNE,23,0.0,0.7,1,0.00,,,0.01,WUHU216HW,2013-09-05 06:10:00,
2013-09-04 23:17:00,58.5,2.1,29.87,NNE,23,0.0,0.0,1,0.00,,,0.01,WUHU216HW,2013-09-05 06:17:00,
2013-09-04 23:22:00,58.5,2.1,29.87,NNE,23,0.0,0.0,1,0.00,,,0.01,WUHU216HW,2013-09-05 06:22:00,
2013-09-04 23:27:00,58.0,1.6,29.88,NNE,23,0.0,0.0,1,0.00,,,0.01,WUHU216HW,2013-09-05 06:27:00,
2013-09-04 23:33:00,58.0,1.6,29.88,SW,225,0.0,0.0,1,0.00,,,0.01,WUHU216HW,2013-09-05 06:33:00,
2013-09-04 23:39:00,57.8,1.5,29.88,SW,225,0.0,0.0,1,0.00,,,0.01,WUHU216HW,2013-09-05 06:39:00,
2013-09-04 23:46:00,57.6,1.4,29.87,SW,225,0.0,0.0,1,0.00,,,0.01,WUHU216HW,2013-09-05 06:46:00,
2013-09-04 23:53:00,57.2,1.1,29.87,SW,225,0.0,0.0,1,0.00,,,0.01,WUHU216HW,2013-09-05 06:53:00,
2013-09-04 23:59:00,57.2,1.1,29.87,SW,225,0.0,0.0,1,0.00,,,0.01,WUHU216HW,2013-09-05 06:59:00,